sensor_id;sensor_type;location;lat;lon;timestamp;temperature;humidity
32809;DHT22;19159;48.178;16.386;2023-10-13T00:01:24;24.10;79.60
32809;DHT22;19159;48.178;16.386;2023-10-13T00:03:50;24.10;80.00
32809;DHT22;19159;48.178;16.386;2023-10-13T00:06:19;24.10;80.20
32809;DHT22;19159;48.178;16.386;2023-10-13T00:08:45;24.10;80.40
32809;DHT22;19159;48.178;16.386;2023-10-13T00:11:14;24.10;80.60
32809;DHT22;19159;48.178;16.386;2023-10-13T00:13:41;24.10;80.60
32809;DHT22;19159;48.178;16.386;2023-10-13T00:16:22;24.00;80.60
32809;DHT22;19159;48.178;16.386;2023-10-13T00:18:49;23.90;81.40
32809;DHT22;19159;48.178;16.386;2023-10-13T00:21:17;23.80;81.50
32809;DHT22;19159;48.178;16.386;2023-10-13T00:23:56;23.70;82.80
32809;DHT22;19159;48.178;16.386;2023-10-13T00:26:24;23.60;82.10
32809;DHT22;19159;48.178;16.386;2023-10-13T00:28:56;23.60;82.30
32809;DHT22;19159;48.178;16.386;2023-10-13T00:31:41;23.70;82.60
32809;DHT22;19159;48.178;16.386;2023-10-13T00:34:08;23.70;82.90
32809;DHT22;19159;48.178;16.386;2023-10-13T00:36:43;23.70;82.70
32809;DHT22;19159;48.178;16.386;2023-10-13T00:39:35;23.70;82.70
32809;DHT22;19159;48.178;16.386;2023-10-13T00:42:05;23.70;82.90
32809;DHT22;19159;48.178;16.386;2023-10-13T00:44:34;23.70;82.80
32809;DHT22;19159;48.178;16.386;2023-10-13T00:47:10;23.70;82.60
32809;DHT22;19159;48.178;16.386;2023-10-13T00:49:56;23.80;82.50
32809;DHT22;19159;48.178;16.386;2023-10-13T00:52:22;23.80;82.60
32809;DHT22;19159;48.178;16.386;2023-10-13T00:54:47;23.80;83.00
32809;DHT22;19159;48.178;16.386;2023-10-13T00:57:15;23.80;83.50
32809;DHT22;19159;48.178;16.386;2023-10-13T00:59:55;23.80;83.50
32809;DHT22;19159;48.178;16.386;2023-10-13T01:02:22;23.90;83.90
32809;DHT22;19159;48.178;16.386;2023-10-13T01:05:04;23.90;83.90
32809;DHT22;19159;48.178;16.386;2023-10-13T01:07:30;23.90;83.50
32809;DHT22;19159;48.178;16.386;2023-10-13T01:09:55;23.90;83.90
32809;DHT22;19159;48.178;16.386;2023-10-13T01:12:21;23.80;84.00
32809;DHT22;19159;48.178;16.386;2023-10-13T01:14:50;23.70;84.60
32809;DHT22;19159;48.178;16.386;2023-10-13T01:17:15;23.60;85.10
32809;DHT22;19159;48.178;16.386;2023-10-13T01:19:41;23.50;85.80
32809;DHT22;19159;48.178;16.386;2023-10-13T01:22:11;23.50;85.90
32809;DHT22;19159;48.178;16.386;2023-10-13T01:24:37;23.50;86.30
32809;DHT22;19159;48.178;16.386;2023-10-13T01:27:07;23.50;86.60
32809;DHT22;19159;48.178;16.386;2023-10-13T01:29:51;23.50;86.60
32809;DHT22;19159;48.178;16.386;2023-10-13T01:32:22;23.60;86.50
32809;DHT22;19159;48.178;16.386;2023-10-13T01:34:48;23.60;86.60
32809;DHT22;19159;48.178;16.386;2023-10-13T01:37:15;23.50;86.50
32809;DHT22;19159;48.178;16.386;2023-10-13T01:39:44;23.50;86.50
32809;DHT22;19159;48.178;16.386;2023-10-13T01:42:13;23.50;86.40
32809;DHT22;19159;48.178;16.386;2023-10-13T01:44:45;23.50;86.60
32809;DHT22;19159;48.178;16.386;2023-10-13T01:47:10;23.50;86.60
32809;DHT22;19159;48.178;16.386;2023-10-13T01:49:38;23.50;86.80
32809;DHT22;19159;48.178;16.386;2023-10-13T01:52:13;23.60;87.00
32809;DHT22;19159;48.178;16.386;2023-10-13T01:54:47;23.60;87.20
32809;DHT22;19159;48.178;16.386;2023-10-13T01:57:14;23.50;86.90
32809;DHT22;19159;48.178;16.386;2023-10-13T01:59:44;23.50;86.80
32809;DHT22;19159;48.178;16.386;2023-10-13T02:02:10;23.50;86.70
32809;DHT22;19159;48.178;16.386;2023-10-13T02:04:42;23.40;87.30
32809;DHT22;19159;48.178;16.386;2023-10-13T02:07:15;23.40;87.00
32809;DHT22;19159;48.178;16.386;2023-10-13T02:09:41;23.40;87.10
32809;DHT22;19159;48.178;16.386;2023-10-13T02:12:08;23.40;87.10
32809;DHT22;19159;48.178;16.386;2023-10-13T02:14:35;23.40;87.00
32809;DHT22;19159;48.178;16.386;2023-10-13T02:17:03;23.50;87.00
32809;DHT22;19159;48.178;16.386;2023-10-13T02:19:39;23.50;87.00
32809;DHT22;19159;48.178;16.386;2023-10-13T02:22:09;23.40;87.00
32809;DHT22;19159;48.178;16.386;2023-10-13T02:24:36;23.40;87.10
32809;DHT22;19159;48.178;16.386;2023-10-13T02:27:08;23.40;87.10
32809;DHT22;19159;48.178;16.386;2023-10-13T02:29:40;23.50;87.20
32809;DHT22;19159;48.178;16.386;2023-10-13T02:32:07;23.50;87.30
32809;DHT22;19159;48.178;16.386;2023-10-13T02:34:44;23.50;87.40
32809;DHT22;19159;48.178;16.386;2023-10-13T02:37:10;23.50;87.30
32809;DHT22;19159;48.178;16.386;2023-10-13T02:39:36;23.50;87.10
32809;DHT22;19159;48.178;16.386;2023-10-13T02:42:07;23.50;87.00
32809;DHT22;19159;48.178;16.386;2023-10-13T02:44:33;23.40;87.10
32809;DHT22;19159;48.178;16.386;2023-10-13T02:47:02;23.30;87.10
32809;DHT22;19159;48.178;16.386;2023-10-13T02:49:39;23.30;87.20
32809;DHT22;19159;48.178;16.386;2023-10-13T02:52:09;23.30;87.40
32809;DHT22;19159;48.178;16.386;2023-10-13T02:54:37;23.20;87.50
32809;DHT22;19159;48.178;16.386;2023-10-13T02:57:08;23.20;87.50
32809;DHT22;19159;48.178;16.386;2023-10-13T02:59:33;23.20;87.50
32809;DHT22;19159;48.178;16.386;2023-10-13T03:02:06;23.20;87.50
32809;DHT22;19159;48.178;16.386;2023-10-13T03:04:55;23.20;87.50
32809;DHT22;19159;48.178;16.386;2023-10-13T03:07:35;23.20;87.40
32809;DHT22;19159;48.178;16.386;2023-10-13T03:10:02;23.20;87.70
32809;DHT22;19159;48.178;16.386;2023-10-13T03:12:36;23.10;87.90
32809;DHT22;19159;48.178;16.386;2023-10-13T03:15:03;23.20;88.00
32809;DHT22;19159;48.178;16.386;2023-10-13T03:17:40;23.20;87.90
32809;DHT22;19159;48.178;16.386;2023-10-13T03:20:18;23.20;88.00
32809;DHT22;19159;48.178;16.386;2023-10-13T03:23:04;23.20;88.20
32809;DHT22;19159;48.178;16.386;2023-10-13T03:25:34;23.20;88.20
32809;DHT22;19159;48.178;16.386;2023-10-13T03:28:08;23.10;88.10
32809;DHT22;19159;48.178;16.386;2023-10-13T03:30:37;23.10;88.10
32809;DHT22;19159;48.178;16.386;2023-10-13T03:33:21;23.10;88.30
32809;DHT22;19159;48.178;16.386;2023-10-13T03:35:52;23.10;88.40
32809;DHT22;19159;48.178;16.386;2023-10-13T03:38:30;23.10;88.30
32809;DHT22;19159;48.178;16.386;2023-10-13T03:40:56;23.10;88.40
32809;DHT22;19159;48.178;16.386;2023-10-13T03:43:22;23.10;88.40
32809;DHT22;19159;48.178;16.386;2023-10-13T03:45:50;23.10;88.50
32809;DHT22;19159;48.178;16.386;2023-10-13T03:48:26;23.20;88.60
32809;DHT22;19159;48.178;16.386;2023-10-13T03:50:53;23.20;88.30
32809;DHT22;19159;48.178;16.386;2023-10-13T03:53:41;23.20;88.40
32809;DHT22;19159;48.178;16.386;2023-10-13T03:56:20;23.10;88.60
32809;DHT22;19159;48.178;16.386;2023-10-13T03:58:56;23.10;88.90
32809;DHT22;19159;48.178;16.386;2023-10-13T04:01:26;23.10;89.20
32809;DHT22;19159;48.178;16.386;2023-10-13T04:04:00;23.10;89.70
32809;DHT22;19159;48.178;16.386;2023-10-13T04:06:32;23.10;90.00
32809;DHT22;19159;48.178;16.386;2023-10-13T04:09:18;23.10;90.10
32809;DHT22;19159;48.178;16.386;2023-10-13T04:17:13;23.10;90.40
32809;DHT22;19159;48.178;16.386;2023-10-13T04:19:43;23.10;90.40
32809;DHT22;19159;48.178;16.386;2023-10-13T04:22:27;23.10;90.50
32809;DHT22;19159;48.178;16.386;2023-10-13T04:28:07;23.10;90.70
32809;DHT22;19159;48.178;16.386;2023-10-13T04:30:49;23.10;90.70
32809;DHT22;19159;48.178;16.386;2023-10-13T04:36:13;23.10;91.10
32809;DHT22;19159;48.178;16.386;2023-10-13T04:39:00;23.10;91.20
32809;DHT22;19159;48.178;16.386;2023-10-13T04:41:30;23.10;91.30
32809;DHT22;19159;48.178;16.386;2023-10-13T04:44:17;23.00;91.40
32809;DHT22;19159;48.178;16.386;2023-10-13T04:46:56;23.00;91.40
32809;DHT22;19159;48.178;16.386;2023-10-13T04:49:29;23.10;91.30
32809;DHT22;19159;48.178;16.386;2023-10-13T04:52:05;23.10;91.30
32809;DHT22;19159;48.178;16.386;2023-10-13T04:54:38;23.00;91.20
32809;DHT22;19159;48.178;16.386;2023-10-13T04:57:20;23.00;91.20
32809;DHT22;19159;48.178;16.386;2023-10-13T04:59:52;23.00;91.20
32809;DHT22;19159;48.178;16.386;2023-10-13T05:02:41;23.00;91.30
32809;DHT22;19159;48.178;16.386;2023-10-13T05:05:23;23.00;91.50
32809;DHT22;19159;48.178;16.386;2023-10-13T05:08:07;23.00;91.60
32809;DHT22;19159;48.178;16.386;2023-10-13T05:10:51;23.10;91.70
32809;DHT22;19159;48.178;16.386;2023-10-13T05:13:36;23.10;91.90
32809;DHT22;19159;48.178;16.386;2023-10-13T05:16:20;23.10;91.80
32809;DHT22;19159;48.178;16.386;2023-10-13T05:19:04;23.20;91.80
32809;DHT22;19159;48.178;16.386;2023-10-13T05:21:50;23.20;91.80
32809;DHT22;19159;48.178;16.386;2023-10-13T05:24:34;23.20;91.60
32809;DHT22;19159;48.178;16.386;2023-10-13T05:27:18;23.20;91.20
32809;DHT22;19159;48.178;16.386;2023-10-13T05:30:02;23.20;90.90
32809;DHT22;19159;48.178;16.386;2023-10-13T05:32:47;23.10;90.60
32809;DHT22;19159;48.178;16.386;2023-10-13T05:35:31;23.00;90.50
32809;DHT22;19159;48.178;16.386;2023-10-13T05:38:16;22.80;90.60
32809;DHT22;19159;48.178;16.386;2023-10-13T05:41:02;22.70;90.70
32809;DHT22;19159;48.178;16.386;2023-10-13T05:43:47;22.70;90.80
32809;DHT22;19159;48.178;16.386;2023-10-13T05:46:31;22.70;90.80
32809;DHT22;19159;48.178;16.386;2023-10-13T05:49:04;22.70;90.80
32809;DHT22;19159;48.178;16.386;2023-10-13T05:51:36;22.70;90.80
32809;DHT22;19159;48.178;16.386;2023-10-13T05:54:05;22.70;90.80
32809;DHT22;19159;48.178;16.386;2023-10-13T05:56:41;22.80;90.70
32809;DHT22;19159;48.178;16.386;2023-10-13T05:59:26;22.90;90.60
32809;DHT22;19159;48.178;16.386;2023-10-13T06:02:10;22.90;90.60
32809;DHT22;19159;48.178;16.386;2023-10-13T06:04:56;22.90;90.50
32809;DHT22;19159;48.178;16.386;2023-10-13T06:07:40;22.90;90.40
32809;DHT22;19159;48.178;16.386;2023-10-13T06:10:25;22.90;90.40
32809;DHT22;19159;48.178;16.386;2023-10-13T06:13:20;23.00;90.40
32809;DHT22;19159;48.178;16.386;2023-10-13T06:16:11;23.00;90.50
32809;DHT22;19159;48.178;16.386;2023-10-13T06:18:55;23.00;90.70
32809;DHT22;19159;48.178;16.386;2023-10-13T06:21:40;23.00;90.90
32809;DHT22;19159;48.178;16.386;2023-10-13T06:24:24;23.00;91.00
32809;DHT22;19159;48.178;16.386;2023-10-13T06:27:09;23.00;91.10
32809;DHT22;19159;48.178;16.386;2023-10-13T06:29:53;23.10;91.20
32809;DHT22;19159;48.178;16.386;2023-10-13T06:32:22;23.10;91.20
32809;DHT22;19159;48.178;16.386;2023-10-13T06:34:55;23.20;91.30
32809;DHT22;19159;48.178;16.386;2023-10-13T06:37:23;23.20;91.40
32809;DHT22;19159;48.178;16.386;2023-10-13T06:39:54;23.20;91.30
32809;DHT22;19159;48.178;16.386;2023-10-13T06:42:23;23.30;91.40
32809;DHT22;19159;48.178;16.386;2023-10-13T06:44:53;23.30;91.30
32809;DHT22;19159;48.178;16.386;2023-10-13T06:47:19;23.30;91.40
32809;DHT22;19159;48.178;16.386;2023-10-13T06:49:46;23.20;91.30
32809;DHT22;19159;48.178;16.386;2023-10-13T06:52:14;23.20;91.40
32809;DHT22;19159;48.178;16.386;2023-10-13T06:54:41;23.30;91.40
32809;DHT22;19159;48.178;16.386;2023-10-13T06:57:09;23.30;91.30
32809;DHT22;19159;48.178;16.386;2023-10-13T06:59:46;23.40;91.30
32809;DHT22;19159;48.178;16.386;2023-10-13T07:02:12;23.40;91.20
32809;DHT22;19159;48.178;16.386;2023-10-13T07:04:47;23.50;91.10
32809;DHT22;19159;48.178;16.386;2023-10-13T07:07:13;23.60;91.00
32809;DHT22;19159;48.178;16.386;2023-10-13T07:09:43;23.70;90.90
32809;DHT22;19159;48.178;16.386;2023-10-13T07:12:20;23.70;90.90
32809;DHT22;19159;48.178;16.386;2023-10-13T07:14:53;23.80;90.60
32809;DHT22;19159;48.178;16.386;2023-10-13T07:17:23;23.90;90.40
32809;DHT22;19159;48.178;16.386;2023-10-13T07:19:53;24.00;90.30
32809;DHT22;19159;48.178;16.386;2023-10-13T07:22:19;24.20;90.10
32809;DHT22;19159;48.178;16.386;2023-10-13T07:24:46;24.50;90.00
32809;DHT22;19159;48.178;16.386;2023-10-13T07:27:19;24.80;89.60
32809;DHT22;19159;48.178;16.386;2023-10-13T07:29:55;25.10;88.60
32809;DHT22;19159;48.178;16.386;2023-10-13T07:32:41;25.40;87.60
32809;DHT22;19159;48.178;16.386;2023-10-13T07:35:15;25.70;86.80
32809;DHT22;19159;48.178;16.386;2023-10-13T07:37:43;25.90;86.10
32809;DHT22;19159;48.178;16.386;2023-10-13T07:40:09;26.20;85.90
32809;DHT22;19159;48.178;16.386;2023-10-13T07:42:56;26.50;84.40
32809;DHT22;19159;48.178;16.386;2023-10-13T07:45:39;26.70;83.10
32809;DHT22;19159;48.178;16.386;2023-10-13T07:48:10;26.90;81.90
32809;DHT22;19159;48.178;16.386;2023-10-13T07:51:18;27.20;81.90
32809;DHT22;19159;48.178;16.386;2023-10-13T07:53:48;27.40;80.70
32809;DHT22;19159;48.178;16.386;2023-10-13T07:56:18;27.70;80.30
32809;DHT22;19159;48.178;16.386;2023-10-13T07:58:44;28.00;79.50
32809;DHT22;19159;48.178;16.386;2023-10-13T08:01:26;28.30;78.50
32809;DHT22;19159;48.178;16.386;2023-10-13T08:03:52;28.60;78.20
32809;DHT22;19159;48.178;16.386;2023-10-13T08:06:39;28.90;77.70
32809;DHT22;19159;48.178;16.386;2023-10-13T08:09:08;29.20;77.40
32809;DHT22;19159;48.178;16.386;2023-10-13T08:11:37;29.40;75.20
32809;DHT22;19159;48.178;16.386;2023-10-13T08:14:04;29.70;74.40
32809;DHT22;19159;48.178;16.386;2023-10-13T08:17:08;30.00;73.40
32809;DHT22;19159;48.178;16.386;2023-10-13T08:19:38;30.20;72.00
32809;DHT22;19159;48.178;16.386;2023-10-13T08:22:13;30.50;70.90
32809;DHT22;19159;48.178;16.386;2023-10-13T08:24:41;30.70;69.00
32809;DHT22;19159;48.178;16.386;2023-10-13T08:27:07;31.00;67.90
32809;DHT22;19159;48.178;16.386;2023-10-13T08:29:43;31.10;67.10
32809;DHT22;19159;48.178;16.386;2023-10-13T08:32:22;31.30;66.20
32809;DHT22;19159;48.178;16.386;2023-10-13T08:34:54;31.50;65.50
32809;DHT22;19159;48.178;16.386;2023-10-13T08:37:21;31.50;64.80
32809;DHT22;19159;48.178;16.386;2023-10-13T08:39:47;31.70;64.80
32809;DHT22;19159;48.178;16.386;2023-10-13T08:42:33;31.80;64.60
32809;DHT22;19159;48.178;16.386;2023-10-13T08:45:09;31.90;63.80
32809;DHT22;19159;48.178;16.386;2023-10-13T08:47:57;32.10;63.40
32809;DHT22;19159;48.178;16.386;2023-10-13T08:50:53;32.30;63.10
32809;DHT22;19159;48.178;16.386;2023-10-13T08:53:26;32.50;62.50
32809;DHT22;19159;48.178;16.386;2023-10-13T08:56:02;32.80;62.30
32809;DHT22;19159;48.178;16.386;2023-10-13T08:58:36;33.00;61.20
32809;DHT22;19159;48.178;16.386;2023-10-13T09:01:36;33.20;60.50
32809;DHT22;19159;48.178;16.386;2023-10-13T09:04:25;33.40;59.50
32809;DHT22;19159;48.178;16.386;2023-10-13T09:09:50;33.70;58.60
32809;DHT22;19159;48.178;16.386;2023-10-13T09:12:21;34.00;58.30
32809;DHT22;19159;48.178;16.386;2023-10-13T09:14:59;34.30;58.00
32809;DHT22;19159;48.178;16.386;2023-10-13T09:17:45;34.60;57.60
32809;DHT22;19159;48.178;16.386;2023-10-13T09:20:17;34.90;57.80
32809;DHT22;19159;48.178;16.386;2023-10-13T09:23:17;35.10;58.00
32809;DHT22;19159;48.178;16.386;2023-10-13T09:25:51;35.50;57.40
32809;DHT22;19159;48.178;16.386;2023-10-13T09:28:34;35.70;56.10
32809;DHT22;19159;48.178;16.386;2023-10-13T09:31:03;35.90;55.50
32809;DHT22;19159;48.178;16.386;2023-10-13T09:33:36;36.10;54.40
32809;DHT22;19159;48.178;16.386;2023-10-13T09:36:06;36.20;54.40
32809;DHT22;19159;48.178;16.386;2023-10-13T09:38:36;36.30;53.40
32809;DHT22;19159;48.178;16.386;2023-10-13T09:41:06;36.40;53.80
32809;DHT22;19159;48.178;16.386;2023-10-13T09:43:44;36.70;54.60
32809;DHT22;19159;48.178;16.386;2023-10-13T09:46:10;37.00;54.10
32809;DHT22;19159;48.178;16.386;2023-10-13T09:48:47;37.20;52.50
32809;DHT22;19159;48.178;16.386;2023-10-13T09:51:16;37.30;51.30
32809;DHT22;19159;48.178;16.386;2023-10-13T09:54:00;37.40;51.90
32809;DHT22;19159;48.178;16.386;2023-10-13T09:56:37;37.50;51.60
32809;DHT22;19159;48.178;16.386;2023-10-13T09:59:22;37.60;51.50
32809;DHT22;19159;48.178;16.386;2023-10-13T10:01:51;37.80;52.00
32809;DHT22;19159;48.178;16.386;2023-10-13T10:04:23;38.00;51.10
32809;DHT22;19159;48.178;16.386;2023-10-13T10:06:56;38.00;51.20
32809;DHT22;19159;48.178;16.386;2023-10-13T10:09:33;38.00;49.20
32809;DHT22;19159;48.178;16.386;2023-10-13T10:17:46;38.20;51.00
32809;DHT22;19159;48.178;16.386;2023-10-13T10:20:13;38.30;49.50
32809;DHT22;19159;48.178;16.386;2023-10-13T10:23:01;38.20;48.50
32809;DHT22;19159;48.178;16.386;2023-10-13T10:25:34;38.00;48.00
32809;DHT22;19159;48.178;16.386;2023-10-13T10:28:06;37.80;47.40
32809;DHT22;19159;48.178;16.386;2023-10-13T10:30:37;37.80;48.90
32809;DHT22;19159;48.178;16.386;2023-10-13T10:33:08;38.50;48.70
32809;DHT22;19159;48.178;16.386;2023-10-13T10:35:45;38.90;47.60
32809;DHT22;19159;48.178;16.386;2023-10-13T10:38:18;38.80;47.10
32809;DHT22;19159;48.178;16.386;2023-10-13T10:41:05;38.90;47.10
32809;DHT22;19159;48.178;16.386;2023-10-13T10:46:13;39.50;47.00
32809;DHT22;19159;48.178;16.386;2023-10-13T10:48:39;39.90;46.50
32809;DHT22;19159;48.178;16.386;2023-10-13T10:51:12;40.20;45.20
32809;DHT22;19159;48.178;16.386;2023-10-13T10:53:49;40.20;45.70
32809;DHT22;19159;48.178;16.386;2023-10-13T10:56:18;40.40;46.00
32809;DHT22;19159;48.178;16.386;2023-10-13T10:58:55;40.70;44.70
32809;DHT22;19159;48.178;16.386;2023-10-13T11:01:22;40.90;42.90
32809;DHT22;19159;48.178;16.386;2023-10-13T11:04:00;40.90;42.90
32809;DHT22;19159;48.178;16.386;2023-10-13T11:06:37;41.50;43.50
32809;DHT22;19159;48.178;16.386;2023-10-13T11:09:08;42.20;42.90
32809;DHT22;19159;48.178;16.386;2023-10-13T11:11:53;42.60;42.40
32809;DHT22;19159;48.178;16.386;2023-10-13T11:14:25;42.50;42.20
32809;DHT22;19159;48.178;16.386;2023-10-13T11:16:54;42.60;42.40
32809;DHT22;19159;48.178;16.386;2023-10-13T11:19:21;42.30;43.00
32809;DHT22;19159;48.178;16.386;2023-10-13T11:21:53;42.00;41.90
32809;DHT22;19159;48.178;16.386;2023-10-13T11:24:22;42.00;42.80
32809;DHT22;19159;48.178;16.386;2023-10-13T11:26:49;42.30;41.30
32809;DHT22;19159;48.178;16.386;2023-10-13T11:29:16;42.10;42.00
32809;DHT22;19159;48.178;16.386;2023-10-13T11:31:48;42.50;41.50
32809;DHT22;19159;48.178;16.386;2023-10-13T11:34:24;43.00;41.40
32809;DHT22;19159;48.178;16.386;2023-10-13T11:36:50;43.10;41.20
32809;DHT22;19159;48.178;16.386;2023-10-13T11:39:16;42.60;41.80
32809;DHT22;19159;48.178;16.386;2023-10-13T11:41:49;42.40;41.10
32809;DHT22;19159;48.178;16.386;2023-10-13T11:44:21;42.90;41.00
32809;DHT22;19159;48.178;16.386;2023-10-13T11:46:56;43.10;40.30
32809;DHT22;19159;48.178;16.386;2023-10-13T11:49:22;43.20;40.20
32809;DHT22;19159;48.178;16.386;2023-10-13T11:51:54;43.70;40.30
32809;DHT22;19159;48.178;16.386;2023-10-13T11:54:27;44.20;39.70
32809;DHT22;19159;48.178;16.386;2023-10-13T11:56:53;44.80;39.80
32809;DHT22;19159;48.178;16.386;2023-10-13T11:59:23;45.00;39.10
32809;DHT22;19159;48.178;16.386;2023-10-13T12:01:53;44.90;39.10
32809;DHT22;19159;48.178;16.386;2023-10-13T12:04:38;44.70;40.20
32809;DHT22;19159;48.178;16.386;2023-10-13T12:07:23;44.60;39.80
32809;DHT22;19159;48.178;16.386;2023-10-13T12:10:07;43.90;39.30
32809;DHT22;19159;48.178;16.386;2023-10-13T12:12:41;43.00;39.70
32809;DHT22;19159;48.178;16.386;2023-10-13T12:15:08;42.60;40.00
32809;DHT22;19159;48.178;16.386;2023-10-13T12:17:35;41.40;40.60
32809;DHT22;19159;48.178;16.386;2023-10-13T12:20:02;40.10;41.90
32809;DHT22;19159;48.178;16.386;2023-10-13T12:22:32;39.10;42.60
32809;DHT22;19159;48.178;16.386;2023-10-13T12:25:02;38.20;43.70
32809;DHT22;19159;48.178;16.386;2023-10-13T12:27:31;37.60;44.50
32809;DHT22;19159;48.178;16.386;2023-10-13T12:30:01;36.80;45.30
32809;DHT22;19159;48.178;16.386;2023-10-13T12:32:33;36.20;46.10
32809;DHT22;19159;48.178;16.386;2023-10-13T12:35:00;35.40;46.70
32809;DHT22;19159;48.178;16.386;2023-10-13T12:37:32;34.40;48.80
32809;DHT22;19159;48.178;16.386;2023-10-13T12:40:19;34.00;49.80
32809;DHT22;19159;48.178;16.386;2023-10-13T12:43:04;33.70;50.70
32809;DHT22;19159;48.178;16.386;2023-10-13T12:45:50;33.50;51.20
32809;DHT22;19159;48.178;16.386;2023-10-13T12:48:36;33.30;51.90
32809;DHT22;19159;48.178;16.386;2023-10-13T12:51:21;33.00;52.00
32809;DHT22;19159;48.178;16.386;2023-10-13T12:54:06;33.00;52.50
32809;DHT22;19159;48.178;16.386;2023-10-13T12:56:45;32.90;52.80
32809;DHT22;19159;48.178;16.386;2023-10-13T12:59:11;32.80;53.00
32809;DHT22;19159;48.178;16.386;2023-10-13T13:01:39;32.30;54.00
32809;DHT22;19159;48.178;16.386;2023-10-13T13:04:09;32.10;54.40
32809;DHT22;19159;48.178;16.386;2023-10-13T13:06:49;31.90;54.90
32809;DHT22;19159;48.178;16.386;2023-10-13T13:09:15;31.70;55.10
32809;DHT22;19159;48.178;16.386;2023-10-13T13:11:41;31.40;55.40
32809;DHT22;19159;48.178;16.386;2023-10-13T13:14:07;31.30;56.10
32809;DHT22;19159;48.178;16.386;2023-10-13T13:16:33;31.20;55.80
32809;DHT22;19159;48.178;16.386;2023-10-13T13:18:58;31.20;55.70
32809;DHT22;19159;48.178;16.386;2023-10-13T13:21:24;31.20;55.70
32809;DHT22;19159;48.178;16.386;2023-10-13T13:23:50;31.00;55.60
32809;DHT22;19159;48.178;16.386;2023-10-13T13:26:16;30.80;55.80
32809;DHT22;19159;48.178;16.386;2023-10-13T13:28:43;31.00;55.80
32809;DHT22;19159;48.178;16.386;2023-10-13T13:31:09;30.90;55.30
32809;DHT22;19159;48.178;16.386;2023-10-13T13:33:38;30.70;55.40
32809;DHT22;19159;48.178;16.386;2023-10-13T13:36:07;30.70;56.10
32809;DHT22;19159;48.178;16.386;2023-10-13T13:38:33;30.70;56.70
32809;DHT22;19159;48.178;16.386;2023-10-13T13:40:59;30.40;57.10
32809;DHT22;19159;48.178;16.386;2023-10-13T13:43:27;30.30;56.70
32809;DHT22;19159;48.178;16.386;2023-10-13T13:46:12;30.30;57.10
32809;DHT22;19159;48.178;16.386;2023-10-13T13:48:42;30.30;57.20
32809;DHT22;19159;48.178;16.386;2023-10-13T13:51:08;30.40;57.20
32809;DHT22;19159;48.178;16.386;2023-10-13T13:53:43;30.60;57.00
32809;DHT22;19159;48.178;16.386;2023-10-13T13:56:14;30.50;57.10
32809;DHT22;19159;48.178;16.386;2023-10-13T13:58:47;30.60;57.00
32809;DHT22;19159;48.178;16.386;2023-10-13T14:01:14;30.50;57.20
32809;DHT22;19159;48.178;16.386;2023-10-13T14:03:52;30.40;57.40
32809;DHT22;19159;48.178;16.386;2023-10-13T14:06:21;30.50;57.50
32809;DHT22;19159;48.178;16.386;2023-10-13T14:08:54;30.50;57.40
32809;DHT22;19159;48.178;16.386;2023-10-13T14:11:27;30.30;57.00
32809;DHT22;19159;48.178;16.386;2023-10-13T14:16:38;30.00;57.00
32809;DHT22;19159;48.178;16.386;2023-10-13T14:19:03;30.00;58.10
32809;DHT22;19159;48.178;16.386;2023-10-13T14:21:33;30.10;58.20
32809;DHT22;19159;48.178;16.386;2023-10-13T14:24:00;30.20;57.80
32809;DHT22;19159;48.178;16.386;2023-10-13T14:26:27;30.20;58.00
32809;DHT22;19159;48.178;16.386;2023-10-13T14:28:54;30.20;58.10
32809;DHT22;19159;48.178;16.386;2023-10-13T14:31:33;30.00;58.00
32809;DHT22;19159;48.178;16.386;2023-10-13T14:34:02;30.00;58.10
32809;DHT22;19159;48.178;16.386;2023-10-13T14:36:27;29.90;58.30
32809;DHT22;19159;48.178;16.386;2023-10-13T14:39:00;30.00;58.40
32809;DHT22;19159;48.178;16.386;2023-10-13T14:41:26;29.90;58.70
32809;DHT22;19159;48.178;16.386;2023-10-13T14:43:51;29.90;58.80
32809;DHT22;19159;48.178;16.386;2023-10-13T14:46:18;29.90;58.90
32809;DHT22;19159;48.178;16.386;2023-10-13T14:48:51;29.90;58.90
32809;DHT22;19159;48.178;16.386;2023-10-13T14:51:16;29.80;58.90
32809;DHT22;19159;48.178;16.386;2023-10-13T14:53:43;29.80;59.10
32809;DHT22;19159;48.178;16.386;2023-10-13T14:56:12;29.80;59.10
32809;DHT22;19159;48.178;16.386;2023-10-13T14:58:39;29.80;59.10
32809;DHT22;19159;48.178;16.386;2023-10-13T15:01:12;29.70;59.20
32809;DHT22;19159;48.178;16.386;2023-10-13T15:03:43;29.70;59.20
32809;DHT22;19159;48.178;16.386;2023-10-13T15:06:18;29.60;59.20
32809;DHT22;19159;48.178;16.386;2023-10-13T15:08:45;29.50;59.30
32809;DHT22;19159;48.178;16.386;2023-10-13T15:11:12;29.50;59.40
32809;DHT22;19159;48.178;16.386;2023-10-13T15:13:39;29.50;59.40
32809;DHT22;19159;48.178;16.386;2023-10-13T15:16:18;29.40;59.60
32809;DHT22;19159;48.178;16.386;2023-10-13T15:18:45;29.30;59.70
32809;DHT22;19159;48.178;16.386;2023-10-13T15:21:12;29.20;60.00
32809;DHT22;19159;48.178;16.386;2023-10-13T15:23:43;29.20;60.10
32809;DHT22;19159;48.178;16.386;2023-10-13T15:26:09;29.00;60.40
32809;DHT22;19159;48.178;16.386;2023-10-13T15:28:36;28.90;60.70
32809;DHT22;19159;48.178;16.386;2023-10-13T15:31:14;29.00;60.90
32809;DHT22;19159;48.178;16.386;2023-10-13T15:33:58;29.00;60.80
32809;DHT22;19159;48.178;16.386;2023-10-13T15:36:24;29.00;61.00
32809;DHT22;19159;48.178;16.386;2023-10-13T15:38:51;28.90;61.20
32809;DHT22;19159;48.178;16.386;2023-10-13T15:41:24;28.60;61.60
32809;DHT22;19159;48.178;16.386;2023-10-13T15:43:50;28.40;61.90
32809;DHT22;19159;48.178;16.386;2023-10-13T15:46:17;28.40;62.00
32809;DHT22;19159;48.178;16.386;2023-10-13T15:48:43;28.40;62.10
32809;DHT22;19159;48.178;16.386;2023-10-13T15:51:11;28.40;62.20
32809;DHT22;19159;48.178;16.386;2023-10-13T15:53:41;28.30;62.00
32809;DHT22;19159;48.178;16.386;2023-10-13T15:56:08;28.40;62.30
32809;DHT22;19159;48.178;16.386;2023-10-13T15:58:41;28.30;62.20
32809;DHT22;19159;48.178;16.386;2023-10-13T16:01:12;28.30;62.50
32809;DHT22;19159;48.178;16.386;2023-10-13T16:03:44;28.30;62.50
32809;DHT22;19159;48.178;16.386;2023-10-13T16:06:18;28.30;63.40
32809;DHT22;19159;48.178;16.386;2023-10-13T16:08:44;28.30;62.70
32809;DHT22;19159;48.178;16.386;2023-10-13T16:11:14;28.30;62.60
32809;DHT22;19159;48.178;16.386;2023-10-13T16:13:40;28.30;62.60
32809;DHT22;19159;48.178;16.386;2023-10-13T16:16:21;28.30;62.70
32809;DHT22;19159;48.178;16.386;2023-10-13T16:18:51;28.30;62.80